sensor_id;sensor_type;location;lat;lon;timestamp;pressure;altitude;pressure_sealevel;temperature;humidity
70248;BME280;57641;51.416;5.506;2022-09-17T00:00:03;101432.69;;;16.11;60.38
70248;BME280;57641;51.416;5.506;2022-09-17T00:02:28;101435.91;;;16.07;61.06
70248;BME280;57641;51.416;5.506;2022-09-17T00:04:54;101445.63;;;16.08;60.92
70248;BME280;57641;51.416;5.506;2022-09-17T00:07:19;101445.81;;;16.06;61.07
70248;BME280;57641;51.416;5.506;2022-09-17T00:09:45;101446.66;;;16.07;61.38
70248;BME280;57641;51.416;5.506;2022-09-17T00:12:12;101459.38;;;16.13;61.00
70248;BME280;57641;51.416;5.506;2022-09-17T00:14:39;101455.03;;;16.12;60.95
70248;BME280;57641;51.416;5.506;2022-09-17T00:17:05;101462.31;;;15.95;60.92
70248;BME280;57641;51.416;5.506;2022-09-17T00:19:30;101466.38;;;15.91;61.08
70248;BME280;57641;51.416;5.506;2022-09-17T00:21:56;101468.38;;;15.89;61.01
70248;BME280;57641;51.416;5.506;2022-09-17T00:24:21;101471.59;;;15.84;61.60
70248;BME280;57641;51.416;5.506;2022-09-17T00:26:47;101472.94;;;15.88;61.12
70248;BME280;57641;51.416;5.506;2022-09-17T00:29:13;101474.81;;;15.80;61.50
70248;BME280;57641;51.416;5.506;2022-09-17T00:31:39;101471.75;;;15.91;61.77
70248;BME280;57641;51.416;5.506;2022-09-17T00:34:05;101478.78;;;16.00;61.01
70248;BME280;57641;51.416;5.506;2022-09-17T00:36:34;101472.88;;;16.04;61.18
70248;BME280;57641;51.416;5.506;2022-09-17T00:39:00;101472.88;;;16.04;61.70
70248;BME280;57641;51.416;5.506;2022-09-17T00:41:29;101468.66;;;16.10;61.16
70248;BME280;57641;51.416;5.506;2022-09-17T00:44:01;101466.81;;;16.11;60.86
70248;BME280;57641;51.416;5.506;2022-09-17T00:46:46;101466.44;;;16.14;60.99
70248;BME280;57641;51.416;5.506;2022-09-17T00:49:16;101484.31;;;16.07;60.50
70248;BME280;57641;51.416;5.506;2022-09-17T00:52:05;101477.56;;;16.02;60.72
70248;BME280;57641;51.416;5.506;2022-09-17T00:54:37;101482.31;;;16.00;60.53
70248;BME280;57641;51.416;5.506;2022-09-17T00:57:03;101483.47;;;15.98;61.16
70248;BME280;57641;51.416;5.506;2022-09-17T00:59:29;101482.31;;;16.00;61.20
70248;BME280;57641;51.416;5.506;2022-09-17T01:01:55;101483.31;;;15.99;60.58
70248;BME280;57641;51.416;5.506;2022-09-17T01:04:24;101482.16;;;16.02;60.79
70248;BME280;57641;51.416;5.506;2022-09-17T01:07:12;101472.50;;;16.08;61.16
70248;BME280;57641;51.416;5.506;2022-09-17T01:09:59;101482.78;;;16.12;61.27
70248;BME280;57641;51.416;5.506;2022-09-17T01:29:11;101497.44;;;15.93;61.46
70248;BME280;57641;51.416;5.506;2022-09-17T01:34:43;101490.91;;;15.96;60.77
70248;BME280;57641;51.416;5.506;2022-09-17T01:37:25;101489.69;;;15.98;60.49
70248;BME280;57641;51.416;5.506;2022-09-17T01:40:07;101500.63;;;15.97;60.75
70248;BME280;57641;51.416;5.506;2022-09-17T01:42:40;101510.69;;;16.03;60.58
70248;BME280;57641;51.416;5.506;2022-09-17T01:45:14;101503.16;;;16.07;60.65
70248;BME280;57641;51.416;5.506;2022-09-17T01:47:48;101506.78;;;16.14;60.67
70248;BME280;57641;51.416;5.506;2022-09-17T01:50:27;101509.69;;;16.12;60.33
70248;BME280;57641;51.416;5.506;2022-09-17T01:52:55;101508.47;;;16.23;60.72
70248;BME280;57641;51.416;5.506;2022-09-17T01:55:25;101503.78;;;16.09;60.65
70248;BME280;57641;51.416;5.506;2022-09-17T02:00:36;101500.44;;;16.07;61.13
70248;BME280;57641;51.416;5.506;2022-09-17T02:03:27;101503.94;;;16.15;60.86
70248;BME280;57641;51.416;5.506;2022-09-17T02:05:59;101501.72;;;16.19;60.73
70248;BME280;57641;51.416;5.506;2022-09-17T02:08:36;101508.72;;;15.89;60.67
70248;BME280;57641;51.416;5.506;2022-09-17T02:11:10;101516.75;;;16.05;60.37
70248;BME280;57641;51.416;5.506;2022-09-17T02:14:01;101510.22;;;15.99;60.99
70248;BME280;57641;51.416;5.506;2022-09-17T02:16:33;101508.03;;;15.95;60.37
70248;BME280;57641;51.416;5.506;2022-09-17T02:19:11;101498.97;;;15.96;60.86
70248;BME280;57641;51.416;5.506;2022-09-17T02:21:45;101501.47;;;15.97;60.67
70248;BME280;57641;51.416;5.506;2022-09-17T02:24:23;101513.75;;;16.00;60.89
70248;BME280;57641;51.416;5.506;2022-09-17T02:26:57;101511.00;;;16.08;60.90
70248;BME280;57641;51.416;5.506;2022-09-17T02:29:32;101503.97;;;16.07;60.64
70248;BME280;57641;51.416;5.506;2022-09-17T02:31:59;101509.03;;;16.02;60.88
70248;BME280;57641;51.416;5.506;2022-09-17T02:34:26;101506.00;;;16.05;60.35
70248;BME280;57641;51.416;5.506;2022-09-17T02:36:54;101508.16;;;16.10;60.37
70248;BME280;57641;51.416;5.506;2022-09-17T02:39:21;101512.75;;;16.01;60.53
70248;BME280;57641;51.416;5.506;2022-09-17T02:41:55;101519.75;;;16.10;60.29
70248;BME280;57641;51.416;5.506;2022-09-17T02:47:51;101526.84;;;16.03;60.71
70248;BME280;57641;51.416;5.506;2022-09-17T02:50:33;101516.31;;;15.85;60.69
70248;BME280;57641;51.416;5.506;2022-09-17T02:58:42;101531.06;;;15.97;60.36
70248;BME280;57641;51.416;5.506;2022-09-17T03:01:17;101528.56;;;15.96;60.91
70248;BME280;57641;51.416;5.506;2022-09-17T03:03:44;101532.06;;;16.04;60.54
70248;BME280;57641;51.416;5.506;2022-09-17T03:06:10;101527.00;;;16.10;60.29
70248;BME280;57641;51.416;5.506;2022-09-17T03:08:41;101527.66;;;16.12;60.47
70248;BME280;57641;51.416;5.506;2022-09-17T03:11:08;101524.63;;;16.15;60.38
70248;BME280;57641;51.416;5.506;2022-09-17T03:13:35;101536.59;;;16.04;60.15
70248;BME280;57641;51.416;5.506;2022-09-17T03:16:04;101534.94;;;15.95;60.29
70248;BME280;57641;51.416;5.506;2022-09-17T03:18:31;101540.28;;;16.03;60.64
70248;BME280;57641;51.416;5.506;2022-09-17T03:20:56;101535.94;;;15.94;60.49
70248;BME280;57641;51.416;5.506;2022-09-17T03:23:22;101527.50;;;15.97;60.57
70248;BME280;57641;51.416;5.506;2022-09-17T03:25:47;101525.19;;;15.94;60.48
70248;BME280;57641;51.416;5.506;2022-09-17T03:28:16;101524.81;;;15.97;60.48
70248;BME280;57641;51.416;5.506;2022-09-17T03:30:43;101513.06;;;15.98;60.27
70248;BME280;57641;51.416;5.506;2022-09-17T03:33:09;101517.13;;;16.02;60.04
70248;BME280;57641;51.416;5.506;2022-09-17T03:35:34;101519.13;;;16.00;59.91
70248;BME280;57641;51.416;5.506;2022-09-17T03:38:01;101513.38;;;16.03;59.78
70248;BME280;57641;51.416;5.506;2022-09-17T03:40:26;101518.28;;;15.99;60.02
70248;BME280;57641;51.416;5.506;2022-09-17T03:42:52;101513.06;;;15.98;59.94
70248;BME280;57641;51.416;5.506;2022-09-17T03:45:17;101519.44;;;15.97;59.63
70248;BME280;57641;51.416;5.506;2022-09-17T03:47:43;101517.28;;;16.00;59.72
70248;BME280;57641;51.416;5.506;2022-09-17T03:50:08;101531.41;;;15.94;59.57
70248;BME280;57641;51.416;5.506;2022-09-17T03:52:33;101530.88;;;15.99;59.32
70248;BME280;57641;51.416;5.506;2022-09-17T03:54:59;101536.59;;;16.04;59.50
70248;BME280;57641;51.416;5.506;2022-09-17T03:57:25;101530.03;;;16.07;59.59
70248;BME280;57641;51.416;5.506;2022-09-17T03:59:50;101538.13;;;15.98;59.52
70248;BME280;57641;51.416;5.506;2022-09-17T04:02:16;101537.94;;;16.00;59.57
70248;BME280;57641;51.416;5.506;2022-09-17T04:04:41;101524.16;;;16.03;59.59
70248;BME280;57641;51.416;5.506;2022-09-17T04:07:06;101534.78;;;15.96;59.43
70248;BME280;57641;51.416;5.506;2022-09-17T04:09:32;101525.34;;;15.92;59.48
70248;BME280;57641;51.416;5.506;2022-09-17T04:11:57;101534.94;;;15.95;59.41
70248;BME280;57641;51.416;5.506;2022-09-17T04:14:23;101534.63;;;15.90;59.53
70248;BME280;57641;51.416;5.506;2022-09-17T04:16:48;101532.75;;;15.82;59.52
70248;BME280;57641;51.416;5.506;2022-09-17T04:19:14;101540.19;;;15.80;59.79
70248;BME280;57641;51.416;5.506;2022-09-17T04:21:39;101543.88;;;15.79;59.84
70248;BME280;57641;51.416;5.506;2022-09-17T04:24:05;101541.03;;;15.81;59.82
70248;BME280;57641;51.416;5.506;2022-09-17T04:26:30;101530.44;;;15.79;59.71
70248;BME280;57641;51.416;5.506;2022-09-17T04:28:56;101541.34;;;15.78;59.81
70248;BME280;57641;51.416;5.506;2022-09-17T04:31:21;101533.78;;;15.73;59.62
70248;BME280;57641;51.416;5.506;2022-09-17T04:33:49;101543.03;;;15.79;59.28
70248;BME280;57641;51.416;5.506;2022-09-17T04:36:15;101542.88;;;15.80;59.87
70248;BME280;57641;51.416;5.506;2022-09-17T04:38:41;101546.41;;;15.81;59.76
70248;BME280;57641;51.416;5.506;2022-09-17T04:41:07;101537.66;;;15.79;59.64
70248;BME280;57641;51.416;5.506;2022-09-17T04:43:33;101549.25;;;15.79;59.44
70248;BME280;57641;51.416;5.506;2022-09-17T04:45:58;101541.19;;;15.79;59.52
70248;BME280;57641;51.416;5.506;2022-09-17T04:48:24;101543.34;;;15.76;59.37
70248;BME280;57641;51.416;5.506;2022-09-17T04:50:49;101543.34;;;15.76;59.74
70248;BME280;57641;51.416;5.506;2022-09-17T04:53:14;101551.09;;;15.79;60.01
70248;BME280;57641;51.416;5.506;2022-09-17T04:55:41;101556.31;;;15.72;59.57
70248;BME280;57641;51.416;5.506;2022-09-17T04:58:07;101557.16;;;15.73;59.56
70248;BME280;57641;51.416;5.506;2022-09-17T05:00:33;101561.53;;;15.74;59.67
70248;BME280;57641;51.416;5.506;2022-09-17T05:02:59;101564.22;;;15.74;59.92
70248;BME280;57641;51.416;5.506;2022-09-17T05:05:25;101553.97;;;15.69;60.33
70248;BME280;57641;51.416;5.506;2022-09-17T05:07:50;101552.44;;;15.67;60.37
70248;BME280;57641;51.416;5.506;2022-09-17T05:10:18;101563.34;;;15.65;60.66
70248;BME280;57641;51.416;5.506;2022-09-17T05:12:52;101564.88;;;15.68;60.39
70248;BME280;57641;51.416;5.506;2022-09-17T05:15:18;101566.56;;;15.69;60.78
70248;BME280;57641;51.416;5.506;2022-09-17T05:17:44;101572.78;;;15.69;60.68
70248;BME280;57641;51.416;5.506;2022-09-17T05:20:11;101566.75;;;15.75;60.75
70248;BME280;57641;51.416;5.506;2022-09-17T05:22:48;101573.94;;;15.83;60.98
70248;BME280;57641;51.416;5.506;2022-09-17T05:25:16;101572.59;;;15.79;60.27
70248;BME280;57641;51.416;5.506;2022-09-17T05:27:42;101579.84;;;15.78;60.34
70248;BME280;57641;51.416;5.506;2022-09-17T05:30:08;101579.31;;;15.83;60.40
70248;BME280;57641;51.416;5.506;2022-09-17T05:32:35;101577.63;;;15.82;60.18
70248;BME280;57641;51.416;5.506;2022-09-17T05:35:02;101571.41;;;15.81;60.15
70248;BME280;57641;51.416;5.506;2022-09-17T05:37:28;101583.19;;;15.80;60.32
70248;BME280;57641;51.416;5.506;2022-09-17T05:39:53;101586.53;;;15.82;60.32
70248;BME280;57641;51.416;5.506;2022-09-17T05:42:18;101590.59;;;15.78;60.14
70248;BME280;57641;51.416;5.506;2022-09-17T05:44:44;101589.75;;;15.78;60.28
70248;BME280;57641;51.416;5.506;2022-09-17T05:47:09;101589.41;;;15.73;60.43
70248;BME280;57641;51.416;5.506;2022-09-17T05:49:35;101590.09;;;15.75;60.31
70248;BME280;57641;51.416;5.506;2022-09-17T05:52:00;101586.56;;;15.66;60.47
70248;BME280;57641;51.416;5.506;2022-09-17T05:54:27;101583.72;;;15.59;60.82
70248;BME280;57641;51.416;5.506;2022-09-17T05:56:53;101587.41;;;15.58;60.90
70248;BME280;57641;51.416;5.506;2022-09-17T05:59:19;101597.81;;;15.61;61.07
70248;BME280;57641;51.416;5.506;2022-09-17T06:01:44;101590.75;;;15.69;60.91
70248;BME280;57641;51.416;5.506;2022-09-17T06:04:10;101601.53;;;15.69;61.25
70248;BME280;57641;51.416;5.506;2022-09-17T06:06:36;101608.56;;;15.78;60.89
70248;BME280;57641;51.416;5.506;2022-09-17T06:09:04;101609.59;;;15.85;60.69
70248;BME280;57641;51.416;5.506;2022-09-17T06:11:29;101613.44;;;15.82;60.97
70248;BME280;57641;51.416;5.506;2022-09-17T06:13:55;101624.53;;;15.87;60.67
70248;BME280;57641;51.416;5.506;2022-09-17T06:16:21;101625.69;;;15.93;60.70
70248;BME280;57641;51.416;5.506;2022-09-17T06:18:47;101629.91;;;15.95;60.76
70248;BME280;57641;51.416;5.506;2022-09-17T06:21:14;101632.59;;;15.95;60.52
70248;BME280;57641;51.416;5.506;2022-09-17T06:23:40;101642.50;;;15.95;60.69
70248;BME280;57641;51.416;5.506;2022-09-17T06:26:08;101640.34;;;15.90;60.26
70248;BME280;57641;51.416;5.506;2022-09-17T06:28:34;101640.16;;;15.92;60.34
70248;BME280;57641;51.416;5.506;2022-09-17T06:31:02;101633.44;;;15.88;60.53
70248;BME280;57641;51.416;5.506;2022-09-17T06:33:29;101629.91;;;15.87;59.86
70248;BME280;57641;51.416;5.506;2022-09-17T06:35:56;101623.88;;;15.85;59.73
70248;BME280;57641;51.416;5.506;2022-09-17T06:38:24;101619.16;;;15.87;60.28
70248;BME280;57641;51.416;5.506;2022-09-17T06:40:50;101615.47;;;15.80;60.41
70248;BME280;57641;51.416;5.506;2022-09-17T06:43:17;101617.97;;;15.82;59.59
70248;BME280;57641;51.416;5.506;2022-09-17T06:45:43;101616.78;;;15.76;58.40
70248;BME280;57641;51.416;5.506;2022-09-17T06:48:09;101620.50;;;15.83;59.34
70248;BME280;57641;51.416;5.506;2022-09-17T06:50:34;101621.66;;;15.89;59.82
70248;BME280;57641;51.416;5.506;2022-09-17T06:52:59;101621.16;;;15.93;59.79
70248;BME280;57641;51.416;5.506;2022-09-17T06:55:26;101617.13;;;15.89;59.95
70248;BME280;57641;51.416;5.506;2022-09-17T06:57:52;101619.66;;;15.99;59.54
70248;BME280;57641;51.416;5.506;2022-09-17T07:00:17;101625.19;;;15.81;59.15
70248;BME280;57641;51.416;5.506;2022-09-17T07:02:43;101619.81;;;15.81;59.10
70248;BME280;57641;51.416;5.506;2022-09-17T07:05:18;101613.44;;;15.98;59.75
70248;BME280;57641;51.416;5.506;2022-09-17T07:07:44;101615.59;;;16.03;59.94
70248;BME280;57641;51.416;5.506;2022-09-17T07:10:09;101612.91;;;16.11;59.42
70248;BME280;57641;51.416;5.506;2022-09-17T07:12:39;101624.19;;;16.07;58.66
70248;BME280;57641;51.416;5.506;2022-09-17T07:15:05;101625.53;;;16.11;58.68
70248;BME280;57641;51.416;5.506;2022-09-17T07:17:30;101616.25;;;16.13;58.70
70248;BME280;57641;51.416;5.506;2022-09-17T07:19:56;101614.06;;;16.25;58.31
70248;BME280;57641;51.416;5.506;2022-09-17T07:22:23;101623.13;;;16.32;58.44
70248;BME280;57641;51.416;5.506;2022-09-17T07:24:49;101618.38;;;16.42;58.84
70248;BME280;57641;51.416;5.506;2022-09-17T07:27:14;101621.25;;;16.48;58.87
70248;BME280;57641;51.416;5.506;2022-09-17T07:29:40;101616.19;;;16.45;58.90
70248;BME280;57641;51.416;5.506;2022-09-17T07:32:06;101622.72;;;16.51;58.21
70248;BME280;57641;51.416;5.506;2022-09-17T07:34:31;101622.75;;;16.59;58.38
70248;BME280;57641;51.416;5.506;2022-09-17T07:36:57;101614.81;;;16.58;57.46
70248;BME280;57641;51.416;5.506;2022-09-17T07:39:22;101620.38;;;16.64;57.55
70248;BME280;57641;51.416;5.506;2022-09-17T07:41:48;101625.22;;;16.69;56.95
70248;BME280;57641;51.416;5.506;2022-09-17T07:44:13;101625.88;;;16.71;57.37
70248;BME280;57641;51.416;5.506;2022-09-17T07:46:39;101626.59;;;16.65;57.04
70248;BME280;57641;51.416;5.506;2022-09-17T07:49:04;101610.56;;;16.71;57.25
70248;BME280;57641;51.416;5.506;2022-09-17T07:51:30;101620.97;;;16.82;56.47
70248;BME280;57641;51.416;5.506;2022-09-17T07:53:57;101621.16;;;16.81;55.52
70248;BME280;57641;51.416;5.506;2022-09-17T07:56:24;101625.47;;;16.90;55.16
70248;BME280;57641;51.416;5.506;2022-09-17T07:58:50;101629.03;;;16.82;55.08
70248;BME280;57641;51.416;5.506;2022-09-17T08:01:16;101622.69;;;16.75;55.57
70248;BME280;57641;51.416;5.506;2022-09-17T08:03:47;101620.03;;;16.98;55.08
70248;BME280;57641;51.416;5.506;2022-09-17T08:06:17;101622.56;;;17.00;56.22
70248;BME280;57641;51.416;5.506;2022-09-17T08:08:44;101623.00;;;17.11;55.63
70248;BME280;57641;51.416;5.506;2022-09-17T08:11:12;101627.50;;;17.19;54.91
70248;BME280;57641;51.416;5.506;2022-09-17T08:13:38;101617.03;;;17.24;54.90
70248;BME280;57641;51.416;5.506;2022-09-17T08:16:09;101628.88;;;17.15;54.96
70248;BME280;57641;51.416;5.506;2022-09-17T08:18:37;101625.19;;;17.16;54.47
70248;BME280;57641;51.416;5.506;2022-09-17T08:21:05;101628.84;;;17.23;54.90
70248;BME280;57641;51.416;5.506;2022-09-17T08:23:34;101630.91;;;17.44;55.19
70248;BME280;57641;51.416;5.506;2022-09-17T08:25:59;101633.91;;;17.49;55.66
70248;BME280;57641;51.416;5.506;2022-09-17T08:28:27;101636.06;;;17.53;54.19
70248;BME280;57641;51.416;5.506;2022-09-17T08:30:54;101632.97;;;17.56;54.93
70248;BME280;57641;51.416;5.506;2022-09-17T08:33:23;101636.22;;;17.60;53.71
70248;BME280;57641;51.416;5.506;2022-09-17T08:35:53;101629.44;;;17.64;52.20
70248;BME280;57641;51.416;5.506;2022-09-17T08:38:19;101644.31;;;17.60;52.43
70248;BME280;57641;51.416;5.506;2022-09-17T08:46:46;101636.84;;;17.62;52.56
70248;BME280;57641;51.416;5.506;2022-09-17T08:57:51;101644.31;;;17.60;53.46
70248;BME280;57641;51.416;5.506;2022-09-17T09:00:21;101635.97;;;17.69;51.91
70248;BME280;57641;51.416;5.506;2022-09-17T09:06:05;101648.59;;;17.92;51.91
70248;BME280;57641;51.416;5.506;2022-09-17T09:08:38;101640.31;;;17.93;51.68
70248;BME280;57641;51.416;5.506;2022-09-17T09:11:17;101632.31;;;18.00;52.17
70248;BME280;57641;51.416;5.506;2022-09-17T09:13:49;101643.09;;;18.23;52.03
70248;BME280;57641;51.416;5.506;2022-09-17T09:16:20;101645.22;;;18.27;50.69
70248;BME280;57641;51.416;5.506;2022-09-17T09:18:51;101646.53;;;18.46;50.53
70248;BME280;57641;51.416;5.506;2022-09-17T09:21:29;101640.41;;;18.52;48.97
70248;BME280;57641;51.416;5.506;2022-09-17T09:24:07;101649.22;;;18.46;48.42
70248;BME280;57641;51.416;5.506;2022-09-17T09:26:46;101661.44;;;18.27;48.99
70248;BME280;57641;51.416;5.506;2022-09-17T09:29:39;101646.81;;;18.22;50.65
70248;BME280;57641;51.416;5.506;2022-09-17T09:32:37;101649.28;;;18.08;52.89
70248;BME280;57641;51.416;5.506;2022-09-17T09:35:25;101647.69;;;17.99;54.42
70248;BME280;57641;51.416;5.506;2022-09-17T09:38:00;101642.28;;;17.99;53.76
70248;BME280;57641;51.416;5.506;2022-09-17T09:43:11;101648.22;;;17.95;53.88
70248;BME280;57641;51.416;5.506;2022-09-17T09:45:48;101656.06;;;18.04;53.73
70248;BME280;57641;51.416;5.506;2022-09-17T09:51:10;101638.78;;;18.13;52.96
70248;BME280;57641;51.416;5.506;2022-09-17T09:59:13;101626.06;;;18.37;49.10
70248;BME280;57641;51.416;5.506;2022-09-17T10:01:40;101635.28;;;18.42;49.97
70248;BME280;57641;51.416;5.506;2022-09-17T10:04:24;101630.34;;;18.46;50.57
70248;BME280;57641;51.416;5.506;2022-09-17T10:07:00;101644.50;;;18.33;52.02
70248;BME280;57641;51.416;5.506;2022-09-17T10:09:31;101638.16;;;18.26;53.67
70248;BME280;57641;51.416;5.506;2022-09-17T10:14:34;101647.69;;;18.14;54.02
70248;BME280;57641;51.416;5.506;2022-09-17T10:17:28;101653.47;;;18.11;54.84
70248;BME280;57641;51.416;5.506;2022-09-17T10:22:42;101642.78;;;17.80;54.69
70248;BME280;57641;51.416;5.506;2022-09-17T10:27:47;101641.22;;;17.86;55.45
70248;BME280;57641;51.416;5.506;2022-09-17T10:30:15;101644.50;;;17.96;56.50
70248;BME280;57641;51.416;5.506;2022-09-17T10:32:41;101655.03;;;18.05;55.62
70248;BME280;57641;51.416;5.506;2022-09-17T10:37:48;101632.00;;;18.32;55.44
70248;BME280;57641;51.416;5.506;2022-09-17T10:42:45;101627.28;;;18.34;53.80
70248;BME280;57641;51.416;5.506;2022-09-17T10:45:26;101628.53;;;18.61;52.97
70248;BME280;57641;51.416;5.506;2022-09-17T10:47:52;101630.47;;;18.67;52.01
70248;BME280;57641;51.416;5.506;2022-09-17T10:50:24;101628.13;;;18.79;50.97
70248;BME280;57641;51.416;5.506;2022-09-17T10:52:53;101635.31;;;18.86;51.18
70248;BME280;57641;51.416;5.506;2022-09-17T10:55:45;101634.22;;;18.66;49.30
70248;BME280;57641;51.416;5.506;2022-09-17T11:06:21;101636.75;;;18.30;52.33
70248;BME280;57641;51.416;5.506;2022-09-17T11:25:54;101628.00;;;18.13;49.49
70248;BME280;57641;51.416;5.506;2022-09-17T11:31:48;101629.75;;;18.21;50.69
70248;BME280;57641;51.416;5.506;2022-09-17T11:37:42;101632.19;;;18.16;50.23
70248;BME280;57641;51.416;5.506;2022-09-17T11:43:00;101623.81;;;18.40;51.83
70248;BME280;57641;51.416;5.506;2022-09-17T11:45:14;101624.75;;;18.47;50.56
70248;BME280;57641;51.416;5.506;2022-09-17T11:47:46;101630.81;;;18.49;50.26
70248;BME280;57641;51.416;5.506;2022-09-17T11:56:08;101627.09;;;18.80;50.62
70248;BME280;57641;51.416;5.506;2022-09-17T12:01:33;101635.38;;;18.34;50.05
70248;BME280;57641;51.416;5.506;2022-09-17T12:07:14;101634.06;;;17.93;51.79
70248;BME280;57641;51.416;5.506;2022-09-17T12:09:49;101630.31;;;18.31;52.56
70248;BME280;57641;51.416;5.506;2022-09-17T12:12:23;101630.16;;;18.47;52.69
70248;BME280;57641;51.416;5.506;2022-09-17T12:14:53;101629.72;;;18.59;51.87
70248;BME280;57641;51.416;5.506;2022-09-17T12:17:24;101628.75;;;18.22;51.49
70248;BME280;57641;51.416;5.506;2022-09-17T12:19:56;101624.19;;;18.37;51.43
70248;BME280;57641;51.416;5.506;2022-09-17T12:22:26;101621.50;;;18.52;51.89
70248;BME280;57641;51.416;5.506;2022-09-17T12:24:54;101619.47;;;18.69;51.23
70248;BME280;57641;51.416;5.506;2022-09-17T12:30:13;101615.19;;;18.60;50.24
70248;BME280;57641;51.416;5.506;2022-09-17T12:41:26;101597.38;;;18.36;48.92
70248;BME280;57641;51.416;5.506;2022-09-17T12:49:48;101600.63;;;18.90;48.77
70248;BME280;57641;51.416;5.506;2022-09-17T13:00:45;101579.44;;;19.08;50.19
70248;BME280;57641;51.416;5.506;2022-09-17T13:03:23;101568.66;;;19.29;49.12
70248;BME280;57641;51.416;5.506;2022-09-17T13:09:01;101575.97;;;19.35;49.11
70248;BME280;57641;51.416;5.506;2022-09-17T13:17:36;101580.06;;;19.10;51.20
70248;BME280;57641;51.416;5.506;2022-09-17T13:22:48;101542.38;;;18.66;49.53
70248;BME280;57641;51.416;5.506;2022-09-17T13:25:16;101566.22;;;18.98;50.44
70248;BME280;57641;51.416;5.506;2022-09-17T13:27:43;101558.91;;;19.14;49.96
70248;BME280;57641;51.416;5.506;2022-09-17T13:30:18;101561.34;;;19.30;49.95
70248;BME280;57641;51.416;5.506;2022-09-17T13:32:54;101569.78;;;19.41;50.05
70248;BME280;57641;51.416;5.506;2022-09-17T13:43:15;101550.44;;;19.87;40.25
70248;BME280;57641;51.416;5.506;2022-09-17T13:48:30;101549.00;;;19.91;36.93
70248;BME280;57641;51.416;5.506;2022-09-17T13:50:56;101551.81;;;20.04;36.52
70248;BME280;57641;51.416;5.506;2022-09-17T13:53:24;101552.31;;;20.14;37.51
70248;BME280;57641;51.416;5.506;2022-09-17T13:55:53;101552.03;;;20.09;36.92
70248;BME280;57641;51.416;5.506;2022-09-17T14:00:55;101554.31;;;20.06;36.29
70248;BME280;57641;51.416;5.506;2022-09-17T14:05:57;101552.66;;;19.77;37.24
70248;BME280;57641;51.416;5.506;2022-09-17T14:08:50;101557.50;;;19.88;37.99
70248;BME280;57641;51.416;5.506;2022-09-17T14:13:58;101555.09;;;20.00;40.69
70248;BME280;57641;51.416;5.506;2022-09-17T14:27:07;101565.84;;;20.14;34.86
70248;BME280;57641;51.416;5.506;2022-09-17T14:32:56;101562.50;;;20.12;35.31
70248;BME280;57641;51.416;5.506;2022-09-17T14:40:44;101570.44;;;20.14;34.48
70248;BME280;57641;51.416;5.506;2022-09-17T14:43:30;101568.94;;;20.11;34.39
70248;BME280;57641;51.416;5.506;2022-09-17T14:45:59;101572.06;;;20.08;35.48
70248;BME280;57641;51.416;5.506;2022-09-17T14:48:30;101569.34;;;20.08;36.06
70248;BME280;57641;51.416;5.506;2022-09-17T14:53:44;101607.56;;;19.99;36.71
70248;BME280;57641;51.416;5.506;2022-09-17T14:56:12;101594.75;;;19.58;35.23
70248;BME280;57641;51.416;5.506;2022-09-17T14:58:45;101605.22;;;19.47;36.49
70248;BME280;57641;51.416;5.506;2022-09-17T15:03:49;101606.66;;;19.07;39.66
70248;BME280;57641;51.416;5.506;2022-09-17T15:06:22;101607.00;;;19.04;39.97
70248;BME280;57641;51.416;5.506;2022-09-17T15:08:48;101604.59;;;19.30;40.25
70248;BME280;57641;51.416;5.506;2022-09-17T15:11:13;101600.69;;;19.32;40.80
70248;BME280;57641;51.416;5.506;2022-09-17T15:13:50;101603.63;;;19.52;40.01
70248;BME280;57641;51.416;5.506;2022-09-17T15:16:23;101602.06;;;19.43;40.73
70248;BME280;57641;51.416;5.506;2022-09-17T15:18:54;101600.78;;;19.39;40.78
70248;BME280;57641;51.416;5.506;2022-09-17T15:21:28;101604.22;;;19.48;41.06
70248;BME280;57641;51.416;5.506;2022-09-17T15:24:42;101596.00;;;19.62;40.94
70248;BME280;57641;51.416;5.506;2022-09-17T15:26:52;101602.59;;;19.74;40.27
70248;BME280;57641;51.416;5.506;2022-09-17T15:29:23;101594.38;;;19.89;39.77
70248;BME280;57641;51.416;5.506;2022-09-17T15:31:50;101597.78;;;19.98;40.03
70248;BME280;57641;51.416;5.506;2022-09-17T15:34:16;101593.41;;;19.97;40.27
70248;BME280;57641;51.416;5.506;2022-09-17T15:37:02;101593.78;;;19.94;40.17
70248;BME280;57641;51.416;5.506;2022-09-17T15:39:40;101591.22;;;19.86;40.46
70248;BME280;57641;51.416;5.506;2022-09-17T15:42:25;101593.41;;;19.97;40.13
70248;BME280;57641;51.416;5.506;2022-09-17T15:44:51;101580.78;;;20.04;40.68
70248;BME280;57641;51.416;5.506;2022-09-17T15:47:54;101591.00;;;20.08;41.04
70248;BME280;57641;51.416;5.506;2022-09-17T15:50:48;101598.91;;;20.10;40.48
70248;BME280;57641;51.416;5.506;2022-09-17T15:53:19;101598.63;;;19.98;40.62
70248;BME280;57641;51.416;5.506;2022-09-17T15:56:06;101597.31;;;19.94;39.90
70248;BME280;57641;51.416;5.506;2022-09-17T15:58:50;101607.78;;;19.97;39.56
70248;BME280;57641;51.416;5.506;2022-09-17T16:08:45;101602.75;;;19.94;38.97
70248;BME280;57641;51.416;5.506;2022-09-17T16:11:12;101601.50;;;19.69;39.76
70248;BME280;57641;51.416;5.506;2022-09-17T16:13:38;101607.41;;;19.58;40.60
70248;BME280;57641;51.416;5.506;2022-09-17T16:16:04;101604.31;;;19.82;39.83
70248;BME280;57641;51.416;5.506;2022-09-17T16:18:30;101604.69;;;19.79;39.28
70248;BME280;57641;51.416;5.506;2022-09-17T16:20:56;101606.97;;;19.75;39.50
70248;BME280;57641;51.416;5.506;2022-09-17T16:23:21;101613.47;;;19.81;39.30
70248;BME280;57641;51.416;5.506;2022-09-17T16:25:47;101607.88;;;19.83;39.68
70248;BME280;57641;51.416;5.506;2022-09-17T16:28:18;101608.16;;;19.94;39.40
70248;BME280;57641;51.416;5.506;2022-09-17T16:30:46;101603.28;;;19.83;38.93